Time;durP1;ratioP1;P1;durP2;ratioP2;P2;SDS_P1;SDS_P2;PMS_P1;PMS_P2;Temp;Humidity;BMP_temperature;BMP_pressure;BME280_temperature;BME280_humidity;BME280_pressure;Samples;Min_cycle;Max_cycle;Signal;HPM_P1;HPM_P2
2022/01/12 00:02:12;;;;;;;73.95;34.70;;;;;;;;;;5054348;28;20027;-47
2022/01/12 00:04:37;;;;;;;77.25;35.08;;;;;;;;;;5054431;28;20024;-50
2022/01/12 00:07:02;;;;;;;82.05;34.88;;;;;;;;;;5054266;28;20021;-48
2022/01/12 00:09:28;;;;;;;84.00;36.50;;;;;;;;;;5053044;28;20349;-50
2022/01/12 00:11:53;;;;;;;73.82;33.83;;;;;;;;;;5052767;28;20024;-48
2022/01/12 00:14:18;;;;;;;73.75;33.95;;;;;;;;;;5054133;28;20510;-51
2022/01/12 00:16:47;;;;;;;72.22;35.55;;;;;;;;;;5054099;28;20021;-48
2022/01/12 00:19:12;;;;;;;71.63;36.08;;;;;;;;;;5053966;28;20491;-48
2022/01/12 00:21:38;;;;;;;74.40;36.25;;;;;;;;;;5053835;28;20021;-51
2022/01/12 00:24:03;;;;;;;83.10;36.13;;;;;;;;;;5054052;28;20025;-51
2022/01/12 00:34:25;;;;;;;69.57;34.92;;;;;;;;;;5054157;28;20380;-50
2022/01/12 00:36:50;;;;;;;78.40;36.75;;;;;;;;;;5053761;28;20013;-48
2022/01/12 00:39:16;;;;;;;77.82;37.05;;;;;;;;;;5053991;28;20059;-51
2022/01/12 00:41:41;;;;;;;78.80;38.67;;;;;;;;;;5053921;28;20051;-51
2022/01/12 00:44:09;;;;;;;75.10;36.75;;;;;;;;;;5053835;28;20025;-49
2022/01/12 00:46:35;;;;;;;70.40;36.55;;;;;;;;;;5053740;28;20063;-50
2022/01/12 00:49:00;;;;;;;80.35;38.28;;;;;;;;;;5053686;28;20029;-49
2022/01/12 00:51:26;;;;;;;87.95;37.30;;;;;;;;;;5053648;28;20021;-48
2022/01/12 00:53:53;;;;;;;73.03;35.72;;;;;;;;;;5053738;28;20021;-50
2022/01/12 00:56:18;;;;;;;79.03;38.30;;;;;;;;;;5053732;28;20025;-51
2022/01/12 00:58:43;;;;;;;78.68;38.55;;;;;;;;;;5053734;28;20028;-50
2022/01/12 01:01:09;;;;;;;75.82;36.33;;;;;;;;;;5053717;28;20029;-49
2022/01/12 01:03:34;;;;;;;74.82;37.25;;;;;;;;;;5053634;28;20017;-50
2022/01/12 01:05:59;;;;;;;73.03;37.05;;;;;;;;;;5053637;28;20118;-49
2022/01/12 01:08:25;;;;;;;77.95;37.95;;;;;;;;;;5056764;28;20104;-51
2022/01/12 01:10:52;;;;;;;78.80;37.53;;;;;;;;;;5057510;28;20032;-49
2022/01/12 01:13:33;;;;;;;73.25;37.65;;;;;;;;;;5057534;28;20009;-49
2022/01/12 01:26:43;;;;;;;89.90;41.10;;;;;;;;;;5057404;28;20078;-48
2022/01/12 01:29:09;;;;;;;78.93;40.50;;;;;;;;;;5055873;28;20020;-48
2022/01/12 01:31:35;;;;;;;85.65;40.63;;;;;;;;;;5057019;28;20037;-51
2022/01/12 01:34:08;;;;;;;79.85;38.40;;;;;;;;;;5057158;28;20009;-48
2022/01/12 01:36:34;;;;;;;79.30;40.45;;;;;;;;;;5057151;28;20020;-50
2022/01/12 01:38:59;;;;;;;79.70;40.47;;;;;;;;;;5056957;28;20104;-48
2022/01/12 01:41:25;;;;;;;85.82;42.00;;;;;;;;;;5057030;28;20053;-49
2022/01/12 01:54:46;;;;;;;85.60;44.10;;;;;;;;;;5058016;28;20067;-48
2022/01/12 01:57:12;;;;;;;98.25;44.22;;;;;;;;;;5056965;28;20021;-51
2022/01/12 01:59:37;;;;;;;86.93;42.13;;;;;;;;;;5056720;28;20013;-48
2022/01/12 02:02:03;;;;;;;89.43;44.47;;;;;;;;;;5055439;28;20017;-47
2022/01/12 02:04:28;;;;;;;91.70;44.60;;;;;;;;;;5056373;28;20039;-47
2022/01/12 02:06:54;;;;;;;96.80;46.72;;;;;;;;;;5056448;28;20017;-47
2022/01/12 02:09:20;;;;;;;104.45;47.90;;;;;;;;;;5056416;28;20016;-47
2022/01/12 02:11:49;;;;;;;105.93;48.78;;;;;;;;;;5056319;28;20029;-48
2022/01/12 02:14:14;;;;;;;110.57;52.25;;;;;;;;;;5056400;28;20021;-48
2022/01/12 02:16:51;;;;;;;113.18;53.08;;;;;;;;;;5056256;28;20450;-48
2022/01/12 02:19:41;;;;;;;125.70;56.22;;;;;;;;;;5037528;28;20106;-47
2022/01/12 02:35:52;;;;;;;120.32;56.47;;;;;;;;;;5036417;28;20063;-48
2022/01/12 02:40:53;;;;;;;148.00;60.67;;;;;;;;;;5035946;28;20037;-51
2022/01/12 02:51:32;;;;;;;129.60;55.20;;;;;;;;;;5035834;28;20060;-48
2022/01/12 02:53:57;;;;;;;118.32;52.55;;;;;;;;;;5035791;28;20068;-49
2022/01/12 02:56:23;;;;;;;113.20;52.17;;;;;;;;;;5035670;28;20456;-48
2022/01/12 02:58:49;;;;;;;112.72;51.92;;;;;;;;;;5035594;28;20372;-48
2022/01/12 03:03:45;;;;;;;110.72;48.58;;;;;;;;;;5035655;28;20030;-48
2022/01/12 03:06:16;;;;;;;114.47;49.47;;;;;;;;;;5035562;28;20021;-49
2022/01/12 03:08:41;;;;;;;105.47;44.42;;;;;;;;;;5035351;28;20366;-49
2022/01/12 03:11:07;;;;;;;97.22;43.50;;;;;;;;;;5034024;28;20018;-49
2022/01/12 03:13:33;;;;;;;102.40;44.75;;;;;;;;;;5035266;28;20543;-50
2022/01/12 03:15:58;;;;;;;94.30;41.88;;;;;;;;;;5035336;28;20023;-50
2022/01/12 03:18:25;;;;;;;105.45;45.60;;;;;;;;;;5035338;28;20022;-49
2022/01/12 03:20:51;;;;;;;104.75;45.15;;;;;;;;;;5035112;28;20035;-49
2022/01/12 03:23:16;;;;;;;98.07;44.17;;;;;;;;;;5035146;28;20025;-49
2022/01/12 03:25:42;;;;;;;105.22;46.55;;;;;;;;;;5035140;28;20396;-50
2022/01/12 03:28:07;;;;;;;107.70;48.70;;;;;;;;;;5035085;28;20025;-50
2022/01/12 03:30:46;;;;;;;121.40;49.35;;;;;;;;;;5033695;28;20076;-51
2022/01/12 03:33:29;;;;;;;112.43;47.00;;;;;;;;;;5034962;28;20021;-48
2022/01/12 03:36:22;;;;;;;104.05;44.17;;;;;;;;;;5034946;28;20017;-48
2022/01/12 03:38:39;;;;;;;106.55;45.78;;;;;;;;;;5034735;28;20057;-49
2022/01/12 03:41:04;;;;;;;98.72;44.80;;;;;;;;;;5034872;28;20040;-52
2022/01/12 03:43:29;;;;;;;104.30;44.10;;;;;;;;;;5034732;28;20063;-50
2022/01/12 03:45:54;;;;;;;109.22;46.50;;;;;;;;;;5034595;28;20022;-49
2022/01/12 03:48:20;;;;;;;115.93;48.97;;;;;;;;;;5034690;28;20021;-49
2022/01/12 03:50:45;;;;;;;113.93;48.88;;;;;;;;;;5034564;28;20380;-51
2022/01/12 03:53:10;;;;;;;110.38;48.28;;;;;;;;;;5034607;28;20408;-49
2022/01/12 03:55:35;;;;;;;107.35;48.25;;;;;;;;;;5034477;28;20097;-51
2022/01/12 03:58:01;;;;;;;94.05;42.70;;;;;;;;;;5034518;28;20096;-49
2022/01/12 04:00:26;;;;;;;90.50;43.42;;;;;;;;;;5034571;28;20554;-48
2022/01/12 04:02:51;;;;;;;109.28;46.85;;;;;;;;;;5034441;28;20040;-49
2022/01/12 04:05:39;;;;;;;103.20;47.47;;;;;;;;;;5034488;28;20021;-48
2022/01/12 04:08:21;;;;;;;109.95;46.35;;;;;;;;;;5034412;28;20131;-49
2022/01/12 04:10:53;;;;;;;103.53;45.72;;;;;;;;;;5034397;28;20065;-49
2022/01/12 04:13:21;;;;;;;128.98;48.75;;;;;;;;;;5034285;28;20487;-48
2022/01/12 04:15:48;;;;;;;98.43;43.17;;;;;;;;;;5034280;28;20013;-50
2022/01/12 04:18:13;;;;;;;96.72;43.65;;;;;;;;;;5034210;28;20408;-52
2022/01/12 04:20:45;;;;;;;88.47;41.85;;;;;;;;;;5034155;28;20025;-49
2022/01/12 04:23:16;;;;;;;96.85;42.25;;;;;;;;;;5032924;28;20030;-49
2022/01/12 04:25:42;;;;;;;89.03;41.15;;;;;;;;;;5034257;28;20018;-48
2022/01/12 04:28:07;;;;;;;90.47;42.38;;;;;;;;;;5035372;28;20048;-48
2022/01/12 04:30:32;;;;;;;83.82;40.10;;;;;;;;;;5033805;28;20077;-48
2022/01/12 04:32:58;;;;;;;78.68;38.80;;;;;;;;;;5034244;28;20083;-48
2022/01/12 04:35:26;;;;;;;87.93;41.45;;;;;;;;;;5034087;28;20092;-49
2022/01/12 04:37:53;;;;;;;84.60;39.25;;;;;;;;;;5034043;28;20017;-48
2022/01/12 04:40:18;;;;;;;84.82;39.20;;;;;;;;;;5033859;28;20441;-48
2022/01/12 04:42:44;;;;;;;84.50;39.60;;;;;;;;;;5033761;28;20105;-48
2022/01/12 04:50:21;;;;;;;86.68;38.90;;;;;;;;;;5033759;28;19948;-48
2022/01/12 04:52:46;;;;;;;86.93;39.53;;;;;;;;;;5033786;28;20052;-49
2022/01/12 04:55:12;;;;;;;88.03;40.42;;;;;;;;;;5033827;28;20021;-49
2022/01/12 04:57:37;;;;;;;89.88;38.72;;;;;;;;;;5034004;28;20110;-51
2022/01/12 05:00:07;;;;;;;98.03;42.72;;;;;;;;;;5033767;28;20013;-48
2022/01/12 05:13:33;;;;;;;83.10;38.97;;;;;;;;;;5033573;28;20040;-48
2022/01/12 05:16:00;;;;;;;100.75;41.50;;;;;;;;;;5033681;28;20021;-48
2022/01/12 05:18:26;;;;;;;107.40;43.38;;;;;;;;;;5033568;28;20072;-48
2022/01/12 05:20:51;;;;;;;90.07;39.08;;;;;;;;;;5033487;28;20029;-47
2022/01/12 05:23:16;;;;;;;97.07;38.83;;;;;;;;;;5033650;28;20029;-47
2022/01/12 05:25:41;;;;;;;91.13;39.20;;;;;;;;;;5033597;28;20026;-51
2022/01/12 05:28:07;;;;;;;85.20;37.90;;;;;;;;;;5033494;28;20483;-48
2022/01/12 05:30:35;;;;;;;86.07;37.83;;;;;;;;;;5033107;28;20052;-47
2022/01/12 05:33:00;;;;;;;87.32;38.67;;;;;;;;;;5033383;28;20017;-50
2022/01/12 05:35:31;;;;;;;84.00;38.83;;;;;;;;;;5033615;28;20028;-47
2022/01/12 05:37:57;;;;;;;90.28;39.45;;;;;;;;;;5033519;28;20518;-47
2022/01/12 05:40:23;;;;;;;86.40;37.25;;;;;;;;;;5033485;28;20083;-48
2022/01/12 05:42:50;;;;;;;79.47;36.53;;;;;;;;;;5033467;28;20026;-47
2022/01/12 05:45:18;;;;;;;83.75;37.28;;;;;;;;;;5033234;28;20489;-47
2022/01/12 05:50:12;;;;;;;85.72;37.05;;;;;;;;;;5033243;28;20029;-48
2022/01/12 05:52:37;;;;;;;95.82;38.80;;;;;;;;;;5033266;28;20014;-48
2022/01/12 05:55:03;;;;;;;79.82;36.72;;;;;;;;;;5035650;28;20040;-48
2022/01/12 05:57:31;;;;;;;85.80;37.47;;;;;;;;;;5036769;28;20028;-47
2022/01/12 05:59:56;;;;;;;83.68;36.38;;;;;;;;;;5036772;28;20014;-47
2022/01/12 06:02:22;;;;;;;95.40;39.85;;;;;;;;;;5036741;28;20083;-47
2022/01/12 06:04:47;;;;;;;91.63;40.30;;;;;;;;;;5036740;28;20025;-48
2022/01/12 06:07:13;;;;;;;111.32;42.00;;;;;;;;;;5036680;28;20035;-48
2022/01/12 06:09:38;;;;;;;81.93;38.65;;;;;;;;;;5036438;28;20108;-46
2022/01/12 06:12:03;;;;;;;98.32;39.03;;;;;;;;;;5036324;28;20025;-47
2022/01/12 06:14:29;;;;;;;85.60;38.28;;;;;;;;;;5036587;28;20022;-47
2022/01/12 06:16:54;;;;;;;80.28;35.97;;;;;;;;;;5036398;28;20025;-49
2022/01/12 06:19:20;;;;;;;100.32;39.45;;;;;;;;;;5036328;28;20009;-49
2022/01/12 06:21:45;;;;;;;81.22;36.90;;;;;;;;;;5036338;28;20017;-47
2022/01/12 06:24:10;;;;;;;72.75;35.45;;;;;;;;;;5037159;28;20064;-52
2022/01/12 06:26:37;;;;;;;91.03;37.00;;;;;;;;;;5034703;28;20025;-52
2022/01/12 06:31:41;;;;;;;77.18;35.05;;;;;;;;;;5035917;28;20057;-51
2022/01/12 06:34:06;;;;;;;82.00;35.70;;;;;;;;;;5037085;28;20116;-54
2022/01/12 06:36:32;;;;;;;98.97;40.33;;;;;;;;;;5033871;28;20057;-50
2022/01/12 06:38:57;;;;;;;101.65;39.55;;;;;;;;;;5034450;28;20092;-51
2022/01/12 06:41:23;;;;;;;102.28;40.00;;;;;;;;;;5035061;28;20423;-51
2022/01/12 06:43:48;;;;;;;83.60;38.05;;;;;;;;;;5032919;28;20033;-51
2022/01/12 06:46:17;;;;;;;103.18;40.58;;;;;;;;;;5032997;28;20025;-49
2022/01/12 06:48:42;;;;;;;100.30;38.17;;;;;;;;;;5034403;28;20464;-50
2022/01/12 06:51:07;;;;;;;93.90;39.72;;;;;;;;;;5027547;28;20014;-52
2022/01/12 06:53:33;;;;;;;97.25;40.85;;;;;;;;;;5024643;28;20418;-53
2022/01/12 06:55:58;;;;;;;92.43;39.10;;;;;;;;;;5026796;28;20175;-51
2022/01/12 06:58:23;;;;;;;105.50;40.38;;;;;;;;;;5021114;28;20032;-53
2022/01/12 07:00:48;;;;;;;103.13;40.08;;;;;;;;;;5018181;28;20186;-54
2022/01/12 07:03:14;;;;;;;150.85;49.67;;;;;;;;;;5012510;28;20025;-50
2022/01/12 07:05:39;;;;;;;130.75;46.65;;;;;;;;;;5011777;28;20157;-50
2022/01/12 07:08:04;;;;;;;114.00;42.95;;;;;;;;;;5018388;28;20030;-53
2022/01/12 07:10:30;;;;;;;141.35;41.88;;;;;;;;;;5004104;28;20029;-49
2022/01/12 07:12:56;;;;;;;122.07;42.75;;;;;;;;;;4992669;28;20013;-50
2022/01/12 07:15:21;;;;;;;143.70;44.88;;;;;;;;;;4984517;28;20034;-51
2022/01/12 07:17:47;;;;;;;114.53;38.35;;;;;;;;;;4928668;28;20420;-53
2022/01/12 07:20:12;;;;;;;128.13;43.67;;;;;;;;;;4902360;28;20115;-52
2022/01/12 07:22:37;;;;;;;139.02;45.30;;;;;;;;;;4871106;28;20036;-52
2022/01/12 07:25:03;;;;;;;116.10;40.05;;;;;;;;;;4797347;28;20634;-53
2022/01/12 07:27:28;;;;;;;138.90;42.85;;;;;;;;;;4729480;28;20076;-53
2022/01/12 07:29:53;;;;;;;120.82;41.33;;;;;;;;;;4679189;28;20037;-50
2022/01/12 07:32:18;;;;;;;199.07;48.00;;;;;;;;;;4697368;28;20095;-52
2022/01/12 07:34:44;;;;;;;165.30;45.40;;;;;;;;;;4781055;28;22767;-50
2022/01/12 07:37:10;;;;;;;259.60;48.13;;;;;;;;;;4866463;28;20734;-53
2022/01/12 07:39:35;;;;;;;166.80;44.20;;;;;;;;;;4789642;28;20041;-53
2022/01/12 07:42:00;;;;;;;191.38;46.53;;;;;;;;;;4807512;28;20163;-52
2022/01/12 07:44:25;;;;;;;178.55;46.42;;;;;;;;;;4830105;28;21376;-50
2022/01/12 07:46:51;;;;;;;184.30;47.90;;;;;;;;;;4817221;28;21968;-49
2022/01/12 07:49:16;;;;;;;162.38;43.33;;;;;;;;;;4836721;28;20055;-49
2022/01/12 07:51:41;;;;;;;184.48;45.35;;;;;;;;;;4811857;28;23032;-51
2022/01/12 07:54:06;;;;;;;207.50;45.65;;;;;;;;;;4828816;28;20485;-52
2022/01/12 07:56:32;;;;;;;137.25;43.45;;;;;;;;;;4789207;28;20037;-51
2022/01/12 07:58:57;;;;;;;181.77;45.47;;;;;;;;;;4791795;28;22164;-50
2022/01/12 08:01:22;;;;;;;149.45;44.63;;;;;;;;;;4753916;28;22169;-51
2022/01/12 08:03:47;;;;;;;190.35;45.38;;;;;;;;;;4789114;28;21194;-52
2022/01/12 08:06:12;;;;;;;160.07;43.95;;;;;;;;;;4827545;28;21759;-49
2022/01/12 08:08:38;;;;;;;152.52;44.58;;;;;;;;;;4791087;28;24389;-51
2022/01/12 08:11:03;;;;;;;158.35;46.67;;;;;;;;;;4708660;28;20750;-48
2022/01/12 08:13:28;;;;;;;172.35;47.15;;;;;;;;;;4648412;28;23777;-53
2022/01/12 08:15:53;;;;;;;166.85;45.75;;;;;;;;;;4646408;28;20086;-53
2022/01/12 08:18:19;;;;;;;200.90;47.38;;;;;;;;;;4546193;28;20966;-52
2022/01/12 08:20:44;;;;;;;184.18;47.60;;;;;;;;;;4564793;28;22047;-52
2022/01/12 08:23:09;;;;;;;181.68;48.85;;;;;;;;;;4582442;28;20079;-50
2022/01/12 08:25:37;;;;;;;227.65;43.30;;;;;;;;;;4732492;28;20732;-49
2022/01/12 08:28:03;;;;;;;134.73;36.80;;;;;;;;;;4770484;28;20030;-49
2022/01/12 08:30:31;;;;;;;155.43;40.85;;;;;;;;;;4742701;22;21740;-51
2022/01/12 08:32:56;;;;;;;172.65;41.47;;;;;;;;;;4712639;28;20026;-50
2022/01/12 08:35:21;;;;;;;173.88;42.25;;;;;;;;;;4748736;28;20030;-51
2022/01/12 08:37:47;;;;;;;164.15;42.03;;;;;;;;;;4754658;28;20109;-50
2022/01/12 08:40:14;;;;;;;146.70;36.92;;;;;;;;;;4745152;28;20733;-49
2022/01/12 08:42:39;;;;;;;163.48;38.85;;;;;;;;;;4748821;28;23776;-50
2022/01/12 08:45:05;;;;;;;157.75;37.55;;;;;;;;;;4738502;28;20604;-52
2022/01/12 08:47:31;;;;;;;165.23;35.80;;;;;;;;;;4744980;28;20031;-52
2022/01/12 08:49:56;;;;;;;164.65;38.83;;;;;;;;;;4709495;28;21205;-53
2022/01/12 08:52:25;;;;;;;137.88;36.40;;;;;;;;;;4711253;28;21408;-53
2022/01/12 08:54:51;;;;;;;230.55;41.08;;;;;;;;;;4732379;28;22023;-55
2022/01/12 08:57:16;;;;;;;160.68;40.20;;;;;;;;;;4730973;28;20687;-49
2022/01/12 08:59:41;;;;;;;142.27;37.35;;;;;;;;;;4719081;28;24932;-50
2022/01/12 09:02:07;;;;;;;122.45;36.15;;;;;;;;;;4713867;28;21092;-53
2022/01/12 09:04:32;;;;;;;176.40;34.85;;;;;;;;;;4703460;28;21371;-51
2022/01/12 09:06:58;;;;;;;122.30;35.50;;;;;;;;;;4578980;28;21039;-52
2022/01/12 09:09:24;;;;;;;142.30;35.83;;;;;;;;;;4540989;28;22086;-53
2022/01/12 09:11:50;;;;;;;184.30;35.10;;;;;;;;;;4627503;28;21171;-52
2022/01/12 09:14:15;;;;;;;157.48;34.42;;;;;;;;;;4676335;28;24259;-50
2022/01/12 09:16:40;;;;;;;207.10;37.00;;;;;;;;;;4716687;28;21739;-51
2022/01/12 09:19:05;;;;;;;140.98;35.58;;;;;;;;;;4734144;28;21348;-52
2022/01/12 09:21:31;;;;;;;133.43;37.67;;;;;;;;;;4718680;28;20117;-50
2022/01/12 09:23:56;;;;;;;144.43;36.05;;;;;;;;;;4725293;28;21301;-50
2022/01/12 09:26:21;;;;;;;129.38;34.78;;;;;;;;;;4709182;28;20773;-50
2022/01/12 09:28:48;;;;;;;164.52;35.67;;;;;;;;;;4601603;28;21928;-53
2022/01/12 09:31:13;;;;;;;131.27;35.45;;;;;;;;;;4492528;28;20426;-49
2022/01/12 09:33:39;;;;;;;140.70;37.50;;;;;;;;;;4540743;28;20164;-49
2022/01/12 09:36:04;;;;;;;99.22;32.67;;;;;;;;;;4575563;28;20832;-50
2022/01/12 09:38:29;;;;;;;123.32;35.65;;;;;;;;;;4663317;28;21348;-49
2022/01/12 09:40:55;;;;;;;119.90;36.67;;;;;;;;;;4671200;28;21653;-51
2022/01/12 09:43:23;;;;;;;107.75;34.38;;;;;;;;;;4675022;28;20113;-50
2022/01/12 09:45:52;;;;;;;129.82;33.25;;;;;;;;;;4666757;28;20736;-53
2022/01/12 09:48:22;;;;;;;117.88;36.22;;;;;;;;;;4681049;28;20633;-50
2022/01/12 09:50:50;;;;;;;120.40;35.22;;;;;;;;;;4653071;28;20076;-50
2022/01/12 09:53:16;;;;;;;111.18;36.20;;;;;;;;;;4679056;28;20144;-49
2022/01/12 09:55:41;;;;;;;105.25;33.45;;;;;;;;;;4686342;28;21805;-49
2022/01/12 09:58:06;;;;;;;108.72;34.13;;;;;;;;;;4640422;28;27100;-53
2022/01/12 10:00:33;;;;;;;111.28;33.58;;;;;;;;;;4595632;28;20030;-53
2022/01/12 10:03:06;;;;;;;98.80;31.65;;;;;;;;;;4575313;28;20061;-51
2022/01/12 10:05:32;;;;;;;101.38;33.50;;;;;;;;;;4608438;28;20882;-51
2022/01/12 10:08:07;;;;;;;101.65;32.22;;;;;;;;;;4628562;28;20689;-50
2022/01/12 10:10:32;;;;;;;106.68;33.22;;;;;;;;;;4623937;28;20114;-50
2022/01/12 10:12:58;;;;;;;104.72;33.95;;;;;;;;;;4623171;28;20160;-53
2022/01/12 10:15:27;;;;;;;90.75;29.70;;;;;;;;;;4561565;28;23166;-49
2022/01/12 10:17:53;;;;;;;80.30;29.52;;;;;;;;;;4486770;28;21264;-50
2022/01/12 10:20:21;;;;;;;88.80;28.63;;;;;;;;;;4471659;28;20225;-53
2022/01/12 10:22:55;;;;;;;90.55;30.92;;;;;;;;;;4526217;28;20064;-53
2022/01/12 10:25:21;;;;;;;85.70;30.70;;;;;;;;;;4687813;28;22033;-53
2022/01/12 10:27:47;;;;;;;89.57;30.63;;;;;;;;;;4695245;28;20022;-50
2022/01/12 10:30:19;;;;;;;74.82;27.42;;;;;;;;;;4699246;28;20076;-50
2022/01/12 10:32:44;;;;;;;74.05;27.35;;;;;;;;;;4706117;28;20084;-50
2022/01/12 10:35:10;;;;;;;75.55;28.30;;;;;;;;;;4705666;28;20120;-52
2022/01/12 10:37:35;;;;;;;85.47;30.63;;;;;;;;;;4713039;28;20111;-50
2022/01/12 10:40:00;;;;;;;72.32;27.35;;;;;;;;;;4709794;28;20031;-51
2022/01/12 10:42:26;;;;;;;71.38;26.27;;;;;;;;;;4710812;28;20793;-54
2022/01/12 10:44:53;;;;;;;68.30;27.23;;;;;;;;;;4713365;28;20082;-54
2022/01/12 10:47:23;;;;;;;74.35;27.00;;;;;;;;;;4685671;28;20031;-50
2022/01/12 10:50:00;;;;;;;68.72;27.23;;;;;;;;;;4697525;28;23440;-50
2022/01/12 10:52:25;;;;;;;65.40;25.98;;;;;;;;;;4672149;28;22215;-51
2022/01/12 10:54:52;;;;;;;63.75;23.67;;;;;;;;;;4669351;28;20707;-50
2022/01/12 10:57:20;;;;;;;70.53;26.10;;;;;;;;;;4620254;28;23554;-50
2022/01/12 11:00:00;;;;;;;69.10;23.95;;;;;;;;;;4595282;28;21493;-53
2022/01/12 11:02:25;;;;;;;;;;;;;;;;;;4572600;28;21036;-51
2022/01/12 11:04:51;;;;;;;61.13;24.85;;;;;;;;;;4523905;28;20051;-53
2022/01/12 11:07:16;;;;;;;62.67;25.63;;;;;;;;;;4431975;28;22657;-54
2022/01/12 11:09:41;;;;;;;63.35;24.67;;;;;;;;;;4507230;28;22390;-54
2022/01/12 11:12:07;;;;;;;57.40;21.80;;;;;;;;;;4600575;28;21015;-53
2022/01/12 11:14:32;;;;;;;64.55;23.65;;;;;;;;;;4611050;28;21483;-52
2022/01/12 11:16:58;;;;;;;60.78;24.50;;;;;;;;;;4620813;28;20026;-51
2022/01/12 11:19:23;;;;;;;68.22;26.27;;;;;;;;;;4644547;28;21339;-55
2022/01/12 11:21:54;;;;;;;61.15;24.17;;;;;;;;;;4677834;28;22381;-53
2022/01/12 11:24:20;;;;;;;57.35;23.83;;;;;;;;;;4637005;28;20150;-53
2022/01/12 11:26:49;;;;;;;61.33;25.95;;;;;;;;;;4635594;28;20030;-51
2022/01/12 11:29:24;;;;;;;62.42;23.73;;;;;;;;;;4643108;28;27471;-53
2022/01/12 11:31:49;;;;;;;66.35;25.85;;;;;;;;;;4621145;28;20039;-50
2022/01/12 11:34:18;;;;;;;57.38;24.25;;;;;;;;;;4633414;28;20041;-50
2022/01/12 11:36:43;;;;;;;65.03;24.63;;;;;;;;;;4585626;28;20851;-51
2022/01/12 11:39:10;;;;;;;64.85;26.42;;;;;;;;;;4522222;28;20061;-52
2022/01/12 11:41:47;;;;;;;66.65;25.75;;;;;;;;;;4579371;28;20037;-52
2022/01/12 11:44:15;;;;;;;72.05;27.13;;;;;;;;;;4621348;28;21525;-50
2022/01/12 11:46:43;;;;;;;67.97;28.25;;;;;;;;;;4560821;28;21474;-52
2022/01/12 11:49:09;;;;;;;61.40;24.80;;;;;;;;;;4621453;28;21142;-51
2022/01/12 11:51:36;;;;;;;56.88;23.38;;;;;;;;;;4643747;28;20617;-51
2022/01/12 11:54:07;;;;;;;51.22;22.45;;;;;;;;;;4714765;28;24527;-51
2022/01/12 11:56:32;;;;;;;61.55;24.27;;;;;;;;;;4657641;28;21047;-53
2022/01/12 11:59:13;;;;;;;61.60;25.27;;;;;;;;;;4673414;28;20030;-53
2022/01/12 12:01:40;;;;;;;61.58;24.48;;;;;;;;;;4688491;28;20882;-49
2022/01/12 12:04:05;;;;;;;67.43;28.65;;;;;;;;;;4726230;28;20117;-53
2022/01/12 12:06:30;;;;;;;63.38;24.42;;;;;;;;;;4772642;28;20878;-53
2022/01/12 12:08:58;;;;;;;63.20;25.33;;;;;;;;;;4791282;28;20026;-51
2022/01/12 12:11:24;;;;;;;58.65;24.23;;;;;;;;;;4816960;28;20173;-51
2022/01/12 12:13:50;;;;;;;53.08;22.77;;;;;;;;;;4827049;28;22175;-54
2022/01/12 12:16:15;;;;;;;62.47;25.52;;;;;;;;;;4818775;28;20179;-53
2022/01/12 12:18:41;;;;;;;64.88;26.73;;;;;;;;;;4836992;28;22185;-51
2022/01/12 12:21:07;;;;;;;59.75;25.50;;;;;;;;;;4829666;28;20498;-51
2022/01/12 12:23:32;;;;;;;64.93;26.92;;;;;;;;;;4788556;28;20034;-51
2022/01/12 12:25:59;;;;;;;59.08;25.88;;;;;;;;;;4782465;28;20072;-54
2022/01/12 12:28:24;;;;;;;57.00;24.55;;;;;;;;;;4712735;28;21419;-51
2022/01/12 12:30:49;;;;;;;57.63;26.83;;;;;;;;;;4642275;28;20185;-50
2022/01/12 12:33:16;;;;;;;63.22;24.58;;;;;;;;;;4673701;28;20088;-51
2022/01/12 12:35:42;;;;;;;59.05;24.27;;;;;;;;;;4755080;28;20782;-53
2022/01/12 12:38:08;;;;;;;57.38;24.77;;;;;;;;;;4819561;28;20068;-51
2022/01/12 12:40:35;;;;;;;55.30;23.20;;;;;;;;;;4809368;28;21278;-51
2022/01/12 12:43:03;;;;;;;55.78;24.25;;;;;;;;;;4811375;28;20110;-52
2022/01/12 12:45:46;;;;;;;53.85;22.67;;;;;;;;;;4831248;28;20794;-51
2022/01/12 12:48:14;;;;;;;51.63;23.08;;;;;;;;;;4789980;28;20767;-51
2022/01/12 12:50:39;;;;;;;53.40;22.27;;;;;;;;;;4751457;28;20054;-51
2022/01/12 12:53:05;;;;;;;44.28;21.15;;;;;;;;;;4749298;28;20038;-51
2022/01/12 12:55:37;;;;;;;50.17;22.05;;;;;;;;;;4789222;28;20081;-52
2022/01/12 12:58:03;;;;;;;51.83;24.10;;;;;;;;;;4786072;28;23101;-50
2022/01/12 13:00:28;;;;;;;46.10;22.75;;;;;;;;;;4753147;28;23118;-53
2022/01/12 13:02:54;;;;;;;50.30;22.98;;;;;;;;;;4760745;28;23264;-51
2022/01/12 13:05:24;;;;;;;44.70;22.55;;;;;;;;;;4761320;28;21064;-52
2022/01/12 13:07:50;;;;;;;49.22;22.75;;;;;;;;;;4764399;28;20763;-53
2022/01/12 13:10:16;;;;;;;40.45;21.23;;;;;;;;;;4759469;28;20022;-52
2022/01/12 13:12:43;;;;;;;45.53;21.17;;;;;;;;;;4760991;28;20116;-51
2022/01/12 13:15:11;;;;;;;52.10;23.00;;;;;;;;;;4726852;28;20263;-53
2022/01/12 13:17:39;;;;;;;43.22;22.33;;;;;;;;;;4647444;28;21228;-52
2022/01/12 13:23:03;;;;;;;46.15;22.45;;;;;;;;;;4714599;28;23110;-49
2022/01/12 13:25:28;;;;;;;48.13;21.73;;;;;;;;;;4768997;28;20032;-51
2022/01/12 13:27:54;;;;;;;48.63;20.60;;;;;;;;;;4825810;28;20035;-50
2022/01/12 13:30:27;;;;;;;44.58;20.88;;;;;;;;;;4811378;28;21625;-51
2022/01/12 13:32:52;;;;;;;39.70;20.02;;;;;;;;;;4848674;28;22887;-53
2022/01/12 13:35:24;;;;;;;42.10;22.58;;;;;;;;;;4839154;28;20026;-52
2022/01/12 13:37:57;;;;;;;50.05;23.88;;;;;;;;;;4814537;28;20034;-52
2022/01/12 13:40:23;;;;;;;44.97;23.25;;;;;;;;;;4829631;28;21539;-50
2022/01/12 13:42:49;;;;;;;49.10;23.00;;;;;;;;;;4806978;28;20033;-51
2022/01/12 13:45:17;;;;;;;51.40;23.30;;;;;;;;;;4812487;28;20106;-52
2022/01/12 13:47:48;;;;;;;49.50;24.58;;;;;;;;;;4779988;28;20045;-50
2022/01/12 13:50:14;;;;;;;50.78;24.63;;;;;;;;;;4821137;28;22269;-51
2022/01/12 13:52:41;;;;;;;53.92;25.38;;;;;;;;;;4830602;28;21515;-51
2022/01/12 13:55:13;;;;;;;53.75;26.13;;;;;;;;;;4829182;28;22271;-51
2022/01/12 13:57:39;;;;;;;51.55;26.08;;;;;;;;;;4823741;28;20856;-50
2022/01/12 14:00:05;;;;;;;56.63;28.17;;;;;;;;;;4812275;28;21742;-52
2022/01/12 14:02:31;;;;;;;52.25;27.08;;;;;;;;;;4823383;28;20042;-51
2022/01/12 14:05:07;;;;;;;49.83;26.42;;;;;;;;;;4792660;28;20029;-53
2022/01/12 14:07:37;;;;;;;41.80;23.10;;;;;;;;;;4750424;28;21909;-50
2022/01/12 14:10:04;;;;;;;;;;;;;;;;;;4724318;28;20038;-53
2022/01/12 14:12:29;;;;;;;51.38;25.63;;;;;;;;;;4749099;28;20563;-50
2022/01/12 14:14:58;;;;;;;51.60;23.92;;;;;;;;;;4798450;28;22362;-52
2022/01/12 14:17:24;;;;;;;57.60;26.27;;;;;;;;;;4851707;28;21361;-52
2022/01/12 14:19:58;;;;;;;54.70;24.75;;;;;;;;;;4876809;28;20527;-50
2022/01/12 14:22:24;;;;;;;51.50;27.48;;;;;;;;;;4882439;28;20052;-51
2022/01/12 14:24:56;;;;;;;58.97;28.15;;;;;;;;;;4890178;28;20912;-50
2022/01/12 14:27:22;;;;;;;56.03;28.63;;;;;;;;;;4882061;28;22910;-51
2022/01/12 14:29:47;;;;;;;58.78;31.27;;;;;;;;;;4888330;28;20076;-51
2022/01/12 14:32:12;;;;;;;64.47;30.05;;;;;;;;;;4896734;28;20121;-50
2022/01/12 14:34:37;;;;;;;65.28;33.28;;;;;;;;;;4890105;28;20033;-50
2022/01/12 14:37:03;;;;;;;68.47;32.97;;;;;;;;;;4902825;28;20026;-50
2022/01/12 14:39:28;;;;;;;71.85;33.13;;;;;;;;;;4917644;28;20692;-53
2022/01/12 14:41:55;;;;;;;64.88;29.60;;;;;;;;;;4908464;28;20026;-52
2022/01/12 14:44:24;;;;;;;64.97;29.52;;;;;;;;;;4913697;28;22952;-50
2022/01/12 14:46:49;;;;;;;62.03;28.85;;;;;;;;;;4894380;28;20033;-50
2022/01/12 14:49:15;;;;;;;62.00;29.80;;;;;;;;;;4893924;28;20069;-51
2022/01/12 14:51:40;;;;;;;64.90;30.58;;;;;;;;;;4897612;28;20043;-50
2022/01/12 14:54:05;;;;;;;65.38;30.13;;;;;;;;;;4872738;28;21419;-53
2022/01/12 14:56:30;;;;;;;68.72;29.38;;;;;;;;;;4826405;28;20030;-52
2022/01/12 14:58:57;;;;;;;68.28;29.77;;;;;;;;;;4838433;28;20037;-50
2022/01/12 15:01:22;;;;;;;68.85;30.17;;;;;;;;;;4855153;28;20038;-53
2022/01/12 15:03:48;;;;;;;68.97;30.25;;;;;;;;;;4882117;28;20027;-54
2022/01/12 15:06:13;;;;;;;70.80;30.92;;;;;;;;;;4915038;28;20140;-51
2022/01/12 15:08:38;;;;;;;74.93;31.15;;;;;;;;;;4939883;28;20022;-51
2022/01/12 15:11:04;;;;;;;72.45;31.15;;;;;;;;;;4956388;28;20494;-51
2022/01/12 15:13:41;;;;;;;73.82;32.63;;;;;;;;;;4944165;28;20097;-53
2022/01/12 15:16:06;;;;;;;78.10;33.13;;;;;;;;;;4958983;28;20658;-51
2022/01/12 15:18:32;;;;;;;75.40;31.60;;;;;;;;;;4949766;28;20030;-50
2022/01/12 15:20:57;;;;;;;84.40;33.25;;;;;;;;;;4951225;28;20761;-51
2022/01/12 15:23:22;;;;;;;76.28;33.05;;;;;;;;;;4966100;28;20030;-51
2022/01/12 15:25:48;;;;;;;81.93;31.95;;;;;;;;;;4965233;28;20097;-51
2022/01/12 15:28:14;;;;;;;70.82;29.25;;;;;;;;;;4965519;28;20068;-52
2022/01/12 15:30:44;;;;;;;77.30;29.50;;;;;;;;;;4953102;28;20465;-54
2022/01/12 15:33:10;;;;;;;55.88;24.75;;;;;;;;;;4962137;28;20026;-52